sensor_id;sensor_type;location;lat;lon;timestamp;pressure;altitude;pressure_sealevel;temperature;humidity
47274;BME280;33007;49.082;19.306;2023-12-20T00:03:32;96022.28;;;-1.95;100.00
47274;BME280;33007;49.082;19.306;2023-12-20T00:05:58;96016.97;;;-1.98;100.00
47274;BME280;33007;49.082;19.306;2023-12-20T00:08:24;96005.97;;;-2.15;100.00
47274;BME280;33007;49.082;19.306;2023-12-20T00:10:49;96003.69;;;-2.05;100.00
47274;BME280;33007;49.082;19.306;2023-12-20T00:13:15;96008.25;;;-2.09;100.00
47274;BME280;33007;49.082;19.306;2023-12-20T00:15:40;96014.34;;;-2.05;100.00
47274;BME280;33007;49.082;19.306;2023-12-20T00:18:06;95997.22;;;-2.12;100.00
47274;BME280;33007;49.082;19.306;2023-12-20T00:20:32;95996.50;;;-2.23;100.00
47274;BME280;33007;49.082;19.306;2023-12-20T00:22:57;95985.44;;;-2.14;100.00
47274;BME280;33007;49.082;19.306;2023-12-20T00:25:24;95993.81;;;-2.12;100.00
47274;BME280;33007;49.082;19.306;2023-12-20T00:27:50;95993.03;;;-2.09;100.00
47274;BME280;33007;49.082;19.306;2023-12-20T00:30:16;95994.53;;;-2.08;100.00
47274;BME280;33007;49.082;19.306;2023-12-20T00:32:42;95991.53;;;-2.10;100.00
47274;BME280;33007;49.082;19.306;2023-12-20T00:35:13;95994.16;;;-1.99;100.00
47274;BME280;33007;49.082;19.306;2023-12-20T00:37:39;95996.06;;;-2.00;100.00
47274;BME280;33007;49.082;19.306;2023-12-20T00:40:05;95994.94;;;-2.06;100.00
47274;BME280;33007;49.082;19.306;2023-12-20T00:42:32;95977.81;;;-2.08;100.00
47274;BME280;33007;49.082;19.306;2023-12-20T00:44:58;95980.84;;;-2.03;100.00
47274;BME280;33007;49.082;19.306;2023-12-20T00:47:24;95987.72;;;-2.02;100.00
47274;BME280;33007;49.082;19.306;2023-12-20T00:49:50;95982.78;;;-2.11;100.00
47274;BME280;33007;49.082;19.306;2023-12-20T00:52:16;95958.09;;;-2.18;100.00
47274;BME280;33007;49.082;19.306;2023-12-20T00:54:43;95949.72;;;-2.34;100.00
47274;BME280;33007;49.082;19.306;2023-12-20T00:57:09;95966.47;;;-2.23;100.00
47274;BME280;33007;49.082;19.306;2023-12-20T00:59:35;95964.91;;;-2.21;100.00
47274;BME280;33007;49.082;19.306;2023-12-20T01:02:00;95961.88;;;-2.30;100.00
47274;BME280;33007;49.082;19.306;2023-12-20T01:04:26;95971.41;;;-2.29;100.00
47274;BME280;33007;49.082;19.306;2023-12-20T01:06:52;95958.13;;;-2.40;100.00
47274;BME280;33007;49.082;19.306;2023-12-20T01:09:17;95956.97;;;-2.39;100.00
47274;BME280;33007;49.082;19.306;2023-12-20T01:11:44;95971.78;;;-2.41;100.00
47274;BME280;33007;49.082;19.306;2023-12-20T01:14:09;95958.50;;;-2.45;100.00
47274;BME280;33007;49.082;19.306;2023-12-20T01:16:35;95951.69;;;-2.49;100.00
47274;BME280;33007;49.082;19.306;2023-12-20T01:19:01;95953.56;;;-2.43;100.00
47274;BME280;33007;49.082;19.306;2023-12-20T01:21:27;95956.19;;;-2.35;100.00
47274;BME280;33007;49.082;19.306;2023-12-20T01:23:52;95956.59;;;-2.48;100.00
47274;BME280;33007;49.082;19.306;2023-12-20T01:26:18;95957.00;;;-2.49;100.00
47274;BME280;33007;49.082;19.306;2023-12-20T01:28:43;95952.03;;;-2.51;100.00
47274;BME280;33007;49.082;19.306;2023-12-20T01:31:09;95936.47;;;-2.52;100.00
47274;BME280;33007;49.082;19.306;2023-12-20T01:33:35;95935.69;;;-2.56;100.00
47274;BME280;33007;49.082;19.306;2023-12-20T01:36:01;95930.41;;;-2.64;100.00
47274;BME280;33007;49.082;19.306;2023-12-20T01:38:26;95928.88;;;-2.65;100.00
47274;BME280;33007;49.082;19.306;2023-12-20T01:40:52;95927.72;;;-2.56;100.00
47274;BME280;33007;49.082;19.306;2023-12-20T01:43:18;95907.25;;;-2.70;100.00
47274;BME280;33007;49.082;19.306;2023-12-20T01:45:43;95930.75;;;-2.61;100.00
47274;BME280;33007;49.082;19.306;2023-12-20T01:48:09;95910.66;;;-2.66;100.00
47274;BME280;33007;49.082;19.306;2023-12-20T01:50:36;95897.72;;;-2.60;100.00
47274;BME280;33007;49.082;19.306;2023-12-20T01:53:04;95901.50;;;-2.58;100.00
47274;BME280;33007;49.082;19.306;2023-12-20T01:55:33;95899.63;;;-2.61;100.00
47274;BME280;33007;49.082;19.306;2023-12-20T01:58:00;95907.59;;;-2.68;100.00
47274;BME280;33007;49.082;19.306;2023-12-20T02:00:30;95900.78;;;-2.69;100.00
47274;BME280;33007;49.082;19.306;2023-12-20T02:02:56;95892.81;;;-2.76;100.00
47274;BME280;33007;49.082;19.306;2023-12-20T02:05:24;95883.31;;;-2.84;100.00
47274;BME280;33007;49.082;19.306;2023-12-20T02:07:51;95878.75;;;-2.80;100.00
47274;BME280;33007;49.082;19.306;2023-12-20T02:10:17;95871.19;;;-2.96;100.00
47274;BME280;33007;49.082;19.306;2023-12-20T02:12:42;95875.72;;;-2.93;100.00
47274;BME280;33007;49.082;19.306;2023-12-20T02:15:08;95880.28;;;-2.90;100.00
47274;BME280;33007;49.082;19.306;2023-12-20T02:17:36;95863.59;;;-3.01;100.00
47274;BME280;33007;49.082;19.306;2023-12-20T02:20:02;95848.38;;;-3.01;100.00
47274;BME280;33007;49.082;19.306;2023-12-20T02:22:27;95841.94;;;-3.10;100.00
47274;BME280;33007;49.082;19.306;2023-12-20T02:24:53;95821.06;;;-3.05;100.00
47274;BME280;33007;49.082;19.306;2023-12-20T02:27:19;95830.16;;;-3.20;100.00
47274;BME280;33007;49.082;19.306;2023-12-20T02:29:47;95821.06;;;-3.23;100.00
47274;BME280;33007;49.082;19.306;2023-12-20T02:32:13;95824.84;;;-3.06;100.00
47274;BME280;33007;49.082;19.306;2023-12-20T02:34:39;95814.63;;;-3.07;100.00
47274;BME280;33007;49.082;19.306;2023-12-20T02:37:04;95825.63;;;-3.09;100.00
47274;BME280;33007;49.082;19.306;2023-12-20T02:39:30;95818.03;;;-3.14;100.00
47274;BME280;33007;49.082;19.306;2023-12-20T02:41:56;95797.16;;;-3.33;100.00
47274;BME280;33007;49.082;19.306;2023-12-20T02:44:21;95810.81;;;-3.31;100.00
47274;BME280;33007;49.082;19.306;2023-12-20T02:46:47;95802.84;;;-3.31;100.00
47274;BME280;33007;49.082;19.306;2023-12-20T02:49:13;95798.28;;;-3.20;100.00
47274;BME280;33007;49.082;19.306;2023-12-20T02:51:39;95788.44;;;-3.27;100.00
47274;BME280;33007;49.082;19.306;2023-12-20T02:54:04;95805.88;;;-3.26;100.00
47274;BME280;33007;49.082;19.306;2023-12-20T02:56:34;95795.28;;;-3.33;100.00
47274;BME280;33007;49.082;19.306;2023-12-20T02:59:00;95799.44;;;-3.28;100.00
47274;BME280;33007;49.082;19.306;2023-12-20T03:01:26;95787.69;;;-3.24;100.00
47274;BME280;33007;49.082;19.306;2023-12-20T03:03:52;95776.69;;;-3.33;100.00
47274;BME280;33007;49.082;19.306;2023-12-20T03:06:18;95777.81;;;-3.27;100.00
47274;BME280;33007;49.082;19.306;2023-12-20T03:08:45;95786.16;;;-3.28;100.00
47274;BME280;33007;49.082;19.306;2023-12-20T03:11:11;95779.69;;;-3.31;100.00
47274;BME280;33007;49.082;19.306;2023-12-20T03:13:37;95778.22;;;-3.46;100.00
47274;BME280;33007;49.082;19.306;2023-12-20T03:16:09;95780.88;;;-3.35;100.00
47274;BME280;33007;49.082;19.306;2023-12-20T03:18:35;95804.38;;;-3.34;100.00
47274;BME280;33007;49.082;19.306;2023-12-20T03:21:01;95774.78;;;-3.32;100.00
47274;BME280;33007;49.082;19.306;2023-12-20T03:23:26;95774.03;;;-3.29;100.00
47274;BME280;33007;49.082;19.306;2023-12-20T03:25:52;95788.06;;;-3.29;100.00
47274;BME280;33007;49.082;19.306;2023-12-20T03:28:18;95785.78;;;-3.34;100.00
47274;BME280;33007;49.082;19.306;2023-12-20T03:30:44;95763.38;;;-3.36;100.00
47274;BME280;33007;49.082;19.306;2023-12-20T03:33:10;95790.31;;;-3.31;100.00
47274;BME280;33007;49.082;19.306;2023-12-20T03:35:36;95779.34;;;-3.29;100.00
47274;BME280;33007;49.082;19.306;2023-12-20T03:38:02;95778.59;;;-3.30;100.00
47274;BME280;33007;49.082;19.306;2023-12-20T03:40:28;95762.63;;;-3.37;100.00
47274;BME280;33007;49.082;19.306;2023-12-20T03:42:53;95780.09;;;-3.43;100.00
47274;BME280;33007;49.082;19.306;2023-12-20T03:45:19;95772.50;;;-3.37;100.00
47274;BME280;33007;49.082;19.306;2023-12-20T03:47:44;95783.88;;;-3.37;100.00
47274;BME280;33007;49.082;19.306;2023-12-20T03:50:10;95757.72;;;-3.46;100.00
47274;BME280;33007;49.082;19.306;2023-12-20T03:52:36;95766.06;;;-3.44;100.00
47274;BME280;33007;49.082;19.306;2023-12-20T03:55:02;95773.25;;;-3.33;100.00
47274;BME280;33007;49.082;19.306;2023-12-20T03:57:27;95765.28;;;-3.33;100.00
47274;BME280;33007;49.082;19.306;2023-12-20T03:59:53;95780.44;;;-3.30;100.00
47274;BME280;33007;49.082;19.306;2023-12-20T04:02:19;95758.84;;;-3.36;100.00
47274;BME280;33007;49.082;19.306;2023-12-20T04:04:44;95752.03;;;-3.40;100.00
47274;BME280;33007;49.082;19.306;2023-12-20T04:07:10;95769.84;;;-3.45;100.00
47274;BME280;33007;49.082;19.306;2023-12-20T04:09:35;95763.78;;;-3.56;100.00
47274;BME280;33007;49.082;19.306;2023-12-20T04:12:01;95754.31;;;-3.60;100.00
47274;BME280;33007;49.082;19.306;2023-12-20T04:14:27;95762.63;;;-3.58;100.00
47274;BME280;33007;49.082;19.306;2023-12-20T04:16:53;95738.75;;;-3.76;100.00
47274;BME280;33007;49.082;19.306;2023-12-20T04:19:19;95755.81;;;-3.66;100.00
47274;BME280;33007;49.082;19.306;2023-12-20T04:21:44;95747.47;;;-3.76;100.00
47274;BME280;33007;49.082;19.306;2023-12-20T04:24:10;95748.97;;;-3.75;100.00
47274;BME280;33007;49.082;19.306;2023-12-20T04:26:35;95748.97;;;-3.78;100.00
47274;BME280;33007;49.082;19.306;2023-12-20T04:29:01;95755.44;;;-3.72;100.00
47274;BME280;33007;49.082;19.306;2023-12-20T04:31:27;95764.53;;;-3.62;100.00
47274;BME280;33007;49.082;19.306;2023-12-20T04:33:52;95750.91;;;-3.61;100.00
47274;BME280;33007;49.082;19.306;2023-12-20T04:36:18;95750.50;;;-3.63;100.00
47274;BME280;33007;49.082;19.306;2023-12-20T04:38:44;95748.63;;;-3.66;100.00
47274;BME280;33007;49.082;19.306;2023-12-20T04:41:10;95742.16;;;-3.65;100.00
47274;BME280;33007;49.082;19.306;2023-12-20T04:43:35;95745.19;;;-3.66;100.00
47274;BME280;33007;49.082;19.306;2023-12-20T04:46:01;95734.22;;;-3.61;100.00
47274;BME280;33007;49.082;19.306;2023-12-20T04:48:27;95735.31;;;-3.62;100.00
47274;BME280;33007;49.082;19.306;2023-12-20T04:50:53;95744.81;;;-3.58;100.00
47274;BME280;33007;49.082;19.306;2023-12-20T04:53:19;95733.44;;;-3.65;100.00
47274;BME280;33007;49.082;19.306;2023-12-20T04:55:44;95743.69;;;-3.60;100.00
47274;BME280;33007;49.082;19.306;2023-12-20T04:58:10;95732.66;;;-3.62;100.00
47274;BME280;33007;49.082;19.306;2023-12-20T05:00:35;95721.69;;;-3.61;100.00
47274;BME280;33007;49.082;19.306;2023-12-20T05:03:01;95725.09;;;-3.71;100.00
47274;BME280;33007;49.082;19.306;2023-12-20T05:05:27;95712.94;;;-3.69;100.00
47274;BME280;33007;49.082;19.306;2023-12-20T05:07:52;95728.91;;;-3.61;100.00
47274;BME280;33007;49.082;19.306;2023-12-20T05:10:18;95711.44;;;-3.70;100.00
47274;BME280;33007;49.082;19.306;2023-12-20T05:12:43;95706.88;;;-3.51;100.00
47274;BME280;33007;49.082;19.306;2023-12-20T05:15:09;95718.25;;;-3.47;100.00
47274;BME280;33007;49.082;19.306;2023-12-20T05:17:34;95708.41;;;-3.54;100.00
47274;BME280;33007;49.082;19.306;2023-12-20T05:20:00;95693.63;;;-3.51;100.00
47274;BME280;33007;49.082;19.306;2023-12-20T05:22:26;95710.66;;;-3.52;100.00
47274;BME280;33007;49.082;19.306;2023-12-20T05:24:53;95695.50;;;-3.55;100.00
47274;BME280;33007;49.082;19.306;2023-12-20T05:27:18;95704.97;;;-3.44;100.00
47274;BME280;33007;49.082;19.306;2023-12-20T05:29:44;95719.78;;;-3.35;100.00
47274;BME280;33007;49.082;19.306;2023-12-20T05:32:10;95704.97;;;-3.33;100.00
47274;BME280;33007;49.082;19.306;2023-12-20T05:34:35;95685.25;;;-3.46;100.00
47274;BME280;33007;49.082;19.306;2023-12-20T05:37:02;95711.41;;;-3.41;100.00
47274;BME280;33007;49.082;19.306;2023-12-20T05:39:27;95701.56;;;-3.44;100.00
47274;BME280;33007;49.082;19.306;2023-12-20T05:41:53;95695.88;;;-3.50;100.00
47274;BME280;33007;49.082;19.306;2023-12-20T05:44:19;95685.63;;;-3.40;100.00
47274;BME280;33007;49.082;19.306;2023-12-20T05:46:44;95690.16;;;-3.37;100.00
47274;BME280;33007;49.082;19.306;2023-12-20T05:49:11;95691.69;;;-3.29;100.00
47274;BME280;33007;49.082;19.306;2023-12-20T05:51:37;95698.84;;;-3.16;100.00
47274;BME280;33007;49.082;19.306;2023-12-20T05:54:02;95697.72;;;-3.18;100.00
47274;BME280;33007;49.082;19.306;2023-12-20T05:56:28;95695.44;;;-3.12;100.00
47274;BME280;33007;49.082;19.306;2023-12-20T05:58:53;95698.81;;;-3.05;100.00
47274;BME280;33007;49.082;19.306;2023-12-20T06:01:19;95703.41;;;-3.12;100.00
47274;BME280;33007;49.082;19.306;2023-12-20T06:03:44;95705.66;;;-3.07;100.00
47274;BME280;33007;49.082;19.306;2023-12-20T06:06:13;95704.50;;;-3.10;100.00
47274;BME280;33007;49.082;19.306;2023-12-20T06:08:39;95706.03;;;-3.02;100.00
47274;BME280;33007;49.082;19.306;2023-12-20T06:11:05;95699.22;;;-3.13;100.00
47274;BME280;33007;49.082;19.306;2023-12-20T06:13:50;95713.22;;;-2.95;100.00
47274;BME280;33007;49.082;19.306;2023-12-20T06:16:18;95691.22;;;-3.06;100.00
47274;BME280;33007;49.082;19.306;2023-12-20T06:18:44;95711.69;;;-2.96;100.00
47274;BME280;33007;49.082;19.306;2023-12-20T06:21:10;95720.41;;;-2.88;100.00
47274;BME280;33007;49.082;19.306;2023-12-20T06:23:41;95717.00;;;-2.96;100.00
47274;BME280;33007;49.082;19.306;2023-12-20T06:26:08;95719.63;;;-2.85;100.00
47274;BME280;33007;49.082;19.306;2023-12-20T06:28:34;95729.53;;;-2.93;100.00
47274;BME280;33007;49.082;19.306;2023-12-20T06:31:00;95730.25;;;-2.78;100.00
47274;BME280;33007;49.082;19.306;2023-12-20T06:33:26;95724.56;;;-2.77;100.00
47274;BME280;33007;49.082;19.306;2023-12-20T06:35:52;95712.06;;;-2.87;100.00
47274;BME280;33007;49.082;19.306;2023-12-20T06:38:18;95706.31;;;-2.75;100.00
47274;BME280;33007;49.082;19.306;2023-12-20T06:40:44;95701.00;;;-2.75;100.00
47274;BME280;33007;49.082;19.306;2023-12-20T06:43:11;95662.66;;;-2.84;100.00
47274;BME280;33007;49.082;19.306;2023-12-20T06:45:37;95688.75;;;-2.61;100.00
47274;BME280;33007;49.082;19.306;2023-12-20T06:48:03;95689.16;;;-2.67;100.00
47274;BME280;33007;49.082;19.306;2023-12-20T06:50:29;95689.94;;;-2.66;100.00
47274;BME280;33007;49.082;19.306;2023-12-20T06:52:54;95677.72;;;-2.53;100.00
47274;BME280;33007;49.082;19.306;2023-12-20T06:55:20;95667.06;;;-2.53;100.00
47274;BME280;33007;49.082;19.306;2023-12-20T06:57:46;95663.31;;;-2.55;100.00
47274;BME280;33007;49.082;19.306;2023-12-20T07:00:12;95680.72;;;-2.44;100.00
47274;BME280;33007;49.082;19.306;2023-12-20T07:02:38;95674.66;;;-2.48;100.00
47274;BME280;33007;49.082;19.306;2023-12-20T07:05:04;95663.25;;;-2.45;100.00
47274;BME280;33007;49.082;19.306;2023-12-20T07:07:30;95665.03;;;-2.31;100.00
47274;BME280;33007;49.082;19.306;2023-12-20T07:09:55;95670.00;;;-2.33;100.00
47274;BME280;33007;49.082;19.306;2023-12-20T07:12:21;95662.84;;;-2.43;100.00
47274;BME280;33007;49.082;19.306;2023-12-20T07:14:47;95660.09;;;-2.29;100.00
47274;BME280;33007;49.082;19.306;2023-12-20T07:17:13;95662.44;;;-2.38;100.00
47274;BME280;33007;49.082;19.306;2023-12-20T07:19:40;95628.69;;;-2.48;100.00
47274;BME280;33007;49.082;19.306;2023-12-20T07:22:06;95671.50;;;-2.28;100.00
47274;BME280;33007;49.082;19.306;2023-12-20T07:24:32;95646.34;;;-2.24;100.00
47274;BME280;33007;49.082;19.306;2023-12-20T07:27:02;95650.16;;;-2.21;100.00
47274;BME280;33007;49.082;19.306;2023-12-20T07:29:28;95652.06;;;-2.18;100.00
47274;BME280;33007;49.082;19.306;2023-12-20T07:31:54;95678.97;;;-2.09;100.00
47274;BME280;33007;49.082;19.306;2023-12-20T07:34:22;95658.47;;;-2.16;100.00
47274;BME280;33007;49.082;19.306;2023-12-20T07:36:48;95669.44;;;-2.06;100.00
47274;BME280;33007;49.082;19.306;2023-12-20T07:39:14;95658.00;;;-2.00;100.00
47274;BME280;33007;49.082;19.306;2023-12-20T07:41:40;95657.63;;;-2.02;100.00
47274;BME280;33007;49.082;19.306;2023-12-20T07:44:06;95659.47;;;-1.92;100.00
47274;BME280;33007;49.082;19.306;2023-12-20T07:46:32;95646.81;;;-1.80;100.00
47274;BME280;33007;49.082;19.306;2023-12-20T07:48:57;95664.66;;;-1.77;100.00
47274;BME280;33007;49.082;19.306;2023-12-20T07:51:23;95630.47;;;-1.82;100.00
47274;BME280;33007;49.082;19.306;2023-12-20T07:53:49;95655.97;;;-1.85;100.00
47274;BME280;33007;49.082;19.306;2023-12-20T07:56:19;95625.44;;;-1.73;100.00
47274;BME280;33007;49.082;19.306;2023-12-20T07:58:45;95650.13;;;-1.69;100.00
47274;BME280;33007;49.082;19.306;2023-12-20T08:01:11;95626.88;;;-1.65;100.00
47274;BME280;33007;49.082;19.306;2023-12-20T08:03:38;95633.31;;;-1.59;100.00
47274;BME280;33007;49.082;19.306;2023-12-20T08:06:04;95642.78;;;-1.54;100.00
47274;BME280;33007;49.082;19.306;2023-12-20T08:08:30;95632.13;;;-1.54;100.00
47274;BME280;33007;49.082;19.306;2023-12-20T08:10:55;95635.91;;;-1.55;100.00
47274;BME280;33007;49.082;19.306;2023-12-20T08:13:24;95632.44;;;-1.49;100.00
47274;BME280;33007;49.082;19.306;2023-12-20T08:15:52;95643.75;;;-1.38;100.00
47274;BME280;33007;49.082;19.306;2023-12-20T08:18:18;95627.47;;;-1.47;100.00
47274;BME280;33007;49.082;19.306;2023-12-20T08:20:44;95631.22;;;-1.41;100.00
47274;BME280;33007;49.082;19.306;2023-12-20T08:23:10;95623.13;;;-1.34;100.00
47274;BME280;33007;49.082;19.306;2023-12-20T08:25:36;95640.28;;;-1.35;100.00
47274;BME280;33007;49.082;19.306;2023-12-20T08:28:05;95643.59;;;-1.23;100.00
47274;BME280;33007;49.082;19.306;2023-12-20T08:30:31;95633.31;;;-1.25;100.00
47274;BME280;33007;49.082;19.306;2023-12-20T08:32:59;95615.81;;;-1.22;100.00
47274;BME280;33007;49.082;19.306;2023-12-20T08:35:25;95608.91;;;-1.20;100.00
47274;BME280;33007;49.082;19.306;2023-12-20T08:37:50;95628.66;;;-1.17;100.00
47274;BME280;33007;49.082;19.306;2023-12-20T08:40:16;95619.53;;;-1.16;100.00
47274;BME280;33007;49.082;19.306;2023-12-20T08:42:42;95615.69;;;-1.12;100.00
47274;BME280;33007;49.082;19.306;2023-12-20T08:45:08;95607.22;;;-1.07;100.00
47274;BME280;33007;49.082;19.306;2023-12-20T08:47:33;95627.59;;;-0.89;100.00
47274;BME280;33007;49.082;19.306;2023-12-20T08:49:59;95614.50;;;-0.80;100.00
47274;BME280;33007;49.082;19.306;2023-12-20T08:52:26;95603.00;;;-0.73;100.00
47274;BME280;33007;49.082;19.306;2023-12-20T08:54:53;95621.88;;;-0.61;100.00
47274;BME280;33007;49.082;19.306;2023-12-20T08:57:22;95613.69;;;-0.46;100.00
47274;BME280;33007;49.082;19.306;2023-12-20T08:59:51;95608.25;;;-0.39;100.00
47274;BME280;33007;49.082;19.306;2023-12-20T09:02:17;95606.75;;;-0.40;100.00
47274;BME280;33007;49.082;19.306;2023-12-20T09:04:43;95619.13;;;-0.27;100.00
47274;BME280;33007;49.082;19.306;2023-12-20T09:07:25;95608.47;;;-0.27;100.00
47274;BME280;33007;49.082;19.306;2023-12-20T09:09:51;95619.59;;;-0.32;100.00
47274;BME280;33007;49.082;19.306;2023-12-20T09:12:18;95615.19;;;-0.18;100.00
47274;BME280;33007;49.082;19.306;2023-12-20T09:14:48;95608.13;;;-0.05;100.00
47274;BME280;33007;49.082;19.306;2023-12-20T09:17:15;95605.78;;;-0.03;100.00
47274;BME280;33007;49.082;19.306;2023-12-20T09:19:42;95598.59;;;-0.06;100.00
47274;BME280;33007;49.082;19.306;2023-12-20T09:22:09;95604.50;;;0.05;100.00
47274;BME280;33007;49.082;19.306;2023-12-20T09:24:35;95607.81;;;0.13;100.00
47274;BME280;33007;49.082;19.306;2023-12-20T09:27:01;95600.66;;;0.30;100.00
47274;BME280;33007;49.082;19.306;2023-12-20T09:29:28;95592.59;;;0.33;100.00
47274;BME280;33007;49.082;19.306;2023-12-20T09:31:54;95590.50;;;0.44;100.00
47274;BME280;33007;49.082;19.306;2023-12-20T09:34:19;95587.56;;;0.59;100.00
47274;BME280;33007;49.082;19.306;2023-12-20T09:36:46;95595.03;;;0.67;100.00
47274;BME280;33007;49.082;19.306;2023-12-20T09:39:18;95593.81;;;0.72;100.00
47274;BME280;33007;49.082;19.306;2023-12-20T09:42:06;95582.00;;;0.89;100.00
47274;BME280;33007;49.082;19.306;2023-12-20T09:44:33;95566.09;;;0.82;100.00
47274;BME280;33007;49.082;19.306;2023-12-20T09:47:02;95585.41;;;1.10;100.00
47274;BME280;33007;49.082;19.306;2023-12-20T09:49:28;95581.34;;;1.21;100.00
47274;BME280;33007;49.082;19.306;2023-12-20T09:51:56;95565.66;;;1.23;100.00
47274;BME280;33007;49.082;19.306;2023-12-20T09:54:22;95549.28;;;1.38;100.00
47274;BME280;33007;49.082;19.306;2023-12-20T09:56:48;95551.81;;;1.45;100.00
47274;BME280;33007;49.082;19.306;2023-12-20T09:59:14;95547.84;;;2.15;100.00
47274;BME280;33007;49.082;19.306;2023-12-20T10:01:41;95555.69;;;2.67;100.00
47274;BME280;33007;49.082;19.306;2023-12-20T10:04:08;95525.28;;;2.99;100.00
47274;BME280;33007;49.082;19.306;2023-12-20T10:06:41;95519.50;;;3.39;100.00
47274;BME280;33007;49.082;19.306;2023-12-20T10:09:07;95506.38;;;3.54;100.00
47274;BME280;33007;49.082;19.306;2023-12-20T10:11:35;95495.00;;;3.50;100.00
47274;BME280;33007;49.082;19.306;2023-12-20T10:14:00;95496.16;;;3.74;100.00
47274;BME280;33007;49.082;19.306;2023-12-20T10:16:27;95496.28;;;4.05;100.00
47274;BME280;33007;49.082;19.306;2023-12-20T10:18:53;95505.09;;;4.06;100.00
47274;BME280;33007;49.082;19.306;2023-12-20T10:21:19;95502.28;;;4.09;100.00
47274;BME280;33007;49.082;19.306;2023-12-20T10:23:45;95504.22;;;4.09;100.00
47274;BME280;33007;49.082;19.306;2023-12-20T10:26:19;95491.13;;;4.11;100.00
47274;BME280;33007;49.082;19.306;2023-12-20T10:28:46;95503.47;;;4.08;100.00
47274;BME280;33007;49.082;19.306;2023-12-20T10:31:32;95510.47;;;4.06;100.00
47274;BME280;33007;49.082;19.306;2023-12-20T10:33:59;95497.19;;;3.89;100.00
47274;BME280;33007;49.082;19.306;2023-12-20T10:36:27;95517.34;;;4.07;100.00
47274;BME280;33007;49.082;19.306;2023-12-20T10:38:53;95515.16;;;4.14;100.00
47274;BME280;33007;49.082;19.306;2023-12-20T10:41:27;95499.47;;;3.78;100.00
47274;BME280;33007;49.082;19.306;2023-12-20T10:44:02;95498.63;;;3.68;100.00
47274;BME280;33007;49.082;19.306;2023-12-20T10:46:29;95516.66;;;3.81;100.00
47274;BME280;33007;49.082;19.306;2023-12-20T10:48:56;95525.69;;;3.74;100.00
47274;BME280;33007;49.082;19.306;2023-12-20T10:51:22;95512.91;;;3.78;100.00
47274;BME280;33007;49.082;19.306;2023-12-20T10:53:50;95517.16;;;3.88;100.00
47274;BME280;33007;49.082;19.306;2023-12-20T10:56:17;95524.69;;;3.93;100.00
47274;BME280;33007;49.082;19.306;2023-12-20T10:58:44;95507.22;;;3.76;100.00
47274;BME280;33007;49.082;19.306;2023-12-20T11:01:12;95504.00;;;3.68;100.00
47274;BME280;33007;49.082;19.306;2023-12-20T11:03:51;95507.41;;;3.82;100.00
47274;BME280;33007;49.082;19.306;2023-12-20T11:06:33;95520.72;;;3.85;100.00
47274;BME280;33007;49.082;19.306;2023-12-20T11:11:59;95520.09;;;3.81;100.00
47274;BME280;33007;49.082;19.306;2023-12-20T11:17:09;95511.41;;;3.64;100.00
47274;BME280;33007;49.082;19.306;2023-12-20T11:19:37;95514.06;;;3.77;100.00
47274;BME280;33007;49.082;19.306;2023-12-20T11:22:04;95517.34;;;3.59;100.00
47274;BME280;33007;49.082;19.306;2023-12-20T11:24:31;95511.31;;;3.68;100.00
47274;BME280;33007;49.082;19.306;2023-12-20T11:26:59;95479.00;;;3.46;100.00
47274;BME280;33007;49.082;19.306;2023-12-20T11:29:33;95520.22;;;3.65;100.00
47274;BME280;33007;49.082;19.306;2023-12-20T11:32:03;95519.91;;;3.50;100.00
47274;BME280;33007;49.082;19.306;2023-12-20T11:34:33;95516.59;;;3.33;100.00
47274;BME280;33007;49.082;19.306;2023-12-20T11:37:00;95517.03;;;3.32;100.00
47274;BME280;33007;49.082;19.306;2023-12-20T11:39:26;95512.63;;;3.25;100.00
47274;BME280;33007;49.082;19.306;2023-12-20T11:41:56;95504.69;;;3.22;100.00
47274;BME280;33007;49.082;19.306;2023-12-20T11:44:22;95507.25;;;3.25;100.00
47274;BME280;33007;49.082;19.306;2023-12-20T11:46:48;95506.72;;;3.30;100.00
47274;BME280;33007;49.082;19.306;2023-12-20T11:49:14;95511.31;;;3.17;100.00
47274;BME280;33007;49.082;19.306;2023-12-20T11:51:41;95518.84;;;3.35;100.00
47274;BME280;33007;49.082;19.306;2023-12-20T11:54:07;95516.47;;;3.24;100.00
47274;BME280;33007;49.082;19.306;2023-12-20T11:56:36;95520.91;;;3.31;100.00
47274;BME280;33007;49.082;19.306;2023-12-20T11:59:02;95522.28;;;3.23;100.00
47274;BME280;33007;49.082;19.306;2023-12-20T12:01:28;95507.59;;;3.14;100.00
47274;BME280;33007;49.082;19.306;2023-12-20T12:04:04;95516.47;;;3.24;100.00
47274;BME280;33007;49.082;19.306;2023-12-20T12:06:33;95522.41;;;3.32;100.00
47274;BME280;33007;49.082;19.306;2023-12-20T12:08:59;95516.16;;;3.35;100.00
47274;BME280;33007;49.082;19.306;2023-12-20T12:11:25;95499.63;;;3.49;100.00
47274;BME280;33007;49.082;19.306;2023-12-20T12:13:50;95501.34;;;3.43;100.00
47274;BME280;33007;49.082;19.306;2023-12-20T12:16:22;95480.28;;;3.29;100.00
47274;BME280;33007;49.082;19.306;2023-12-20T12:18:58;95510.91;;;3.19;100.00
47274;BME280;33007;49.082;19.306;2023-12-20T12:21:24;95504.34;;;3.32;100.00
47274;BME280;33007;49.082;19.306;2023-12-20T12:23:50;95501.44;;;3.39;100.00
47274;BME280;33007;49.082;19.306;2023-12-20T12:26:16;95480.44;;;3.25;100.00
47274;BME280;33007;49.082;19.306;2023-12-20T12:28:41;95482.78;;;3.36;100.00
47274;BME280;33007;49.082;19.306;2023-12-20T12:31:09;95472.03;;;3.23;100.00
47274;BME280;33007;49.082;19.306;2023-12-20T12:33:40;95491.34;;;3.44;100.00
47274;BME280;33007;49.082;19.306;2023-12-20T12:36:07;95488.56;;;3.22;100.00
47274;BME280;33007;49.082;19.306;2023-12-20T12:38:33;95475.81;;;3.26;100.00
47274;BME280;33007;49.082;19.306;2023-12-20T12:41:00;95477.84;;;3.47;100.00
47274;BME280;33007;49.082;19.306;2023-12-20T12:43:25;95469.97;;;3.53;100.00
47274;BME280;33007;49.082;19.306;2023-12-20T12:45:51;95470.66;;;3.31;100.00
47274;BME280;33007;49.082;19.306;2023-12-20T12:48:18;95465.78;;;3.39;100.00